Chan Gurney Municipal Airport Yankton US
ICAO: KYKN
IATA: YKN
Category: Medium
Scheduled Services: No

Elevation: 1306 ft
TransAlt. 18000 ft.

Airport Communications:
AWOS 3:111.4
MINNEAPOLIS CNTR:124.1
HURON RDO:111.4
CTAF/UNICOM:122.8

KYKN Zoom In..

If you have problems with the map follow the link
https://www.worldairports.se/pages/airport.php?
ICAO=KYKN

Runways:

(A) RW 01 length 3380 ft width 75 ft
---- / hdg 14

(B) RW 13 length 6095 ft width 100 ft
---- / hdg 133

(C) RW 19 length 3380 ft width 75 ft
---- / hdg 194

(D) RW 31 length 6095 ft width 100 ft
ILS 109.50 / hdg 313

Location; KYKN
Day. 16 / Time. 02.56 Zulu
* Altimeter: 30.06
* Temperature: -13° c. -8.6°f.
* Wind from: 000° Speed 00 kn.
Dewpoint: -15° c.
Visibility: 8 Statute Miles.
Clouds: Clear (automated report).

KYKN 160256Z AUTO 00000KT 8SM CLR M13/M15 A3006 RMK AO2 SLP222 T11331150 51009 FZRANO


Wind - Calm.

 
 
jpsmedia worldairports.se 2019   terms of use